Time;durP1;ratioP1;P1;durP2;ratioP2;P2;SDS_P1;SDS_P2;PMS_P1;PMS_P2;Temp;Humidity;BMP_temperature;BMP_pressure;BME280_temperature;BME280_humidity;BME280_pressure;Samples;Min_cycle;Max_cycle;Signal;HPM_P1;HPM_P2
2022/09/17 00:01:29;;;;;;;0.10;0.10;;;9.80;99.90;;;;;;5012530;28;20271;-77
2022/09/17 00:04:03;;;;;;;0.10;0.10;;;9.80;99.90;;;;;;5001524;28;20252;-77
2022/09/17 00:06:35;;;;;;;0.00;0.00;;;9.80;99.90;;;;;;5000507;28;20201;-76
2022/09/17 00:09:04;;;;;;;0.00;0.00;;;9.80;99.90;;;;;;5008556;28;20211;-76
2022/09/17 00:11:35;;;;;;;0.00;0.00;;;9.90;99.90;;;;;;5020385;28;20204;-76
2022/09/17 00:14:05;;;;;;;0.10;0.10;;;9.90;99.90;;;;;;5024823;28;20227;-76
2022/09/17 00:16:36;;;;;;;0.10;0.10;;;9.80;99.90;;;;;;5012024;28;20753;-76
2022/09/17 00:19:05;;;;;;;0.10;0.10;;;9.90;99.90;;;;;;5013450;28;20208;-77
2022/09/17 00:21:34;;;;;;;0.10;0.10;;;9.90;99.90;;;;;;5002409;28;20258;-76
2022/09/17 00:24:05;;;;;;;0.10;0.10;;;9.90;99.90;;;;;;5011096;28;20293;-76
2022/09/17 00:26:35;;;;;;;0.10;0.10;;;10.00;99.90;;;;;;5007783;28;20208;-77
2022/09/17 00:29:04;;;;;;;0.10;0.10;;;10.00;99.90;;;;;;4998490;28;20255;-77
2022/09/17 00:31:33;;;;;;;0.10;0.10;;;10.10;99.90;;;;;;4997986;28;20199;-78
2022/09/17 00:34:02;;;;;;;0.10;0.10;;;10.00;99.90;;;;;;5003963;28;20228;-78
2022/09/17 00:36:31;;;;;;;0.10;0.10;;;10.00;99.90;;;;;;4998012;28;20215;-78
2022/09/17 00:39:00;;;;;;;0.10;0.10;;;10.00;99.90;;;;;;4993901;28;20204;-78
2022/09/17 00:41:30;;;;;;;0.00;0.00;;;10.00;99.90;;;;;;5006874;28;20196;-78
2022/09/17 00:44:00;;;;;;;0.10;0.10;;;9.90;99.90;;;;;;5004204;28;20224;-76
2022/09/17 00:46:32;;;;;;;0.10;0.10;;;10.00;99.90;;;;;;4993075;28;20220;-76
2022/09/17 00:49:04;;;;;;;0.00;0.00;;;10.00;99.90;;;;;;4995223;28;20200;-76
2022/09/17 00:51:35;;;;;;;0.00;0.00;;;10.00;99.90;;;;;;5010518;28;20200;-76
2022/09/17 00:54:09;;;;;;;0.10;0.10;;;10.00;99.90;;;;;;5007632;28;20236;-76
2022/09/17 00:56:39;;;;;;;0.10;0.10;;;10.10;99.90;;;;;;4998922;28;20569;-76
2022/09/17 00:59:07;;;;;;;0.10;0.10;;;10.10;99.90;;;;;;5002943;28;20207;-76
2022/09/17 01:01:36;;;;;;;0.10;0.10;;;10.10;99.90;;;;;;5010762;28;20230;-76
2022/09/17 01:04:04;;;;;;;0.10;0.10;;;10.10;99.90;;;;;;5003454;28;20290;-76
2022/09/17 01:06:36;;;;;;;0.08;0.08;;;10.10;99.90;;;;;;5011195;28;20278;-76
2022/09/17 01:09:21;;;;;;;0.10;0.10;;;10.10;99.90;;;;;;5009469;28;20569;-76
2022/09/17 01:12:04;;;;;;;0.10;0.10;;;10.20;99.90;;;;;;5010155;28;20207;-77
2022/09/17 01:14:45;;;;;;;0.10;0.10;;;10.20;99.90;;;;;;5011403;28;20737;-77
2022/09/17 01:17:28;;;;;;;0.10;0.10;;;10.20;99.90;;;;;;5011707;28;20659;-77
2022/09/17 01:20:16;;;;;;;0.10;0.10;;;10.20;99.90;;;;;;4995573;28;20195;-77
2022/09/17 01:23:00;;;;;;;0.03;0.03;;;10.10;99.90;;;;;;4982042;23;1224838;-75
2022/09/17 01:25:41;;;;;;;0.10;0.10;;;10.20;99.90;;;;;;4981212;28;20250;-75
2022/09/17 01:28:24;;;;;;;0.10;0.10;;;10.20;99.90;;;;;;5004869;28;20224;-75
2022/09/17 01:31:12;;;;;;;0.00;0.00;;;10.20;99.90;;;;;;4993847;28;20570;-75
2022/09/17 01:33:48;;;;;;;0.10;0.10;;;10.20;99.90;;;;;;4994762;28;20224;-75
2022/09/17 01:36:29;;;;;;;0.00;0.00;;;10.20;99.90;;;;;;4994956;28;20540;-75
2022/09/17 01:39:05;;;;;;;0.10;0.10;;;10.20;99.90;;;;;;4984194;28;20857;-75
2022/09/17 01:41:40;;;;;;;0.10;0.10;;;10.20;99.90;;;;;;4986751;28;20199;-75
2022/09/17 01:44:15;;;;;;;0.10;0.10;;;10.20;99.90;;;;;;4986955;28;20222;-75
2022/09/17 01:46:49;;;;;;;0.10;0.10;;;10.20;99.90;;;;;;4972975;28;20295;-76
2022/09/17 01:49:20;;;;;;;0.05;0.05;;;10.30;99.90;;;;;;4987385;28;20603;-75
2022/09/17 01:51:50;;;;;;;0.10;0.10;;;10.30;99.90;;;;;;4993818;28;20270;-75
2022/09/17 01:54:23;;;;;;;0.10;0.10;;;10.30;99.90;;;;;;4994678;28;20348;-76
2022/09/17 01:56:56;;;;;;;0.10;0.10;;;10.30;99.90;;;;;;4975528;28;20221;-75
2022/09/17 01:59:30;;;;;;;0.00;0.00;;;10.30;99.90;;;;;;4985186;28;20617;-76
2022/09/17 02:02:06;;;;;;;0.05;0.05;;;10.30;99.90;;;;;;4987184;28;20242;-76
2022/09/17 02:04:40;;;;;;;0.10;0.10;;;10.30;99.90;;;;;;4994121;28;20603;-76
2022/09/17 02:07:14;;;;;;;0.10;0.10;;;10.30;99.90;;;;;;4994444;28;20260;-75
2022/09/17 02:09:46;;;;;;;0.10;0.10;;;10.30;99.90;;;;;;4992149;28;20704;-75
2022/09/17 02:12:18;;;;;;;0.00;0.00;;;10.30;99.90;;;;;;4993583;28;20233;-75
2022/09/17 02:14:50;;;;;;;0.10;0.10;;;10.30;99.90;;;;;;4976898;28;20645;-75
2022/09/17 02:17:25;;;;;;;0.10;0.10;;;10.30;99.90;;;;;;4982259;28;20204;-76
2022/09/17 02:19:55;;;;;;;0.10;0.10;;;10.40;99.90;;;;;;4992825;28;20246;-75
2022/09/17 02:22:28;;;;;;;0.10;0.10;;;10.40;99.90;;;;;;4993842;28;20227;-76
2022/09/17 02:25:04;;;;;;;0.10;0.10;;;10.30;99.90;;;;;;4994123;28;20204;-76
2022/09/17 02:27:41;;;;;;;0.10;0.10;;;10.40;99.90;;;;;;4990601;28;20631;-75
2022/09/17 02:30:10;;;;;;;0.10;0.10;;;10.40;99.90;;;;;;4990249;28;20600;-76
2022/09/17 02:32:40;;;;;;;0.10;0.10;;;10.40;99.90;;;;;;4988470;28;20255;-76
2022/09/17 02:35:09;;;;;;;0.00;0.00;;;10.30;99.90;;;;;;4993829;28;20188;-76
2022/09/17 02:37:37;;;;;;;0.00;0.00;;;10.30;99.90;;;;;;5009917;28;20254;-75
2022/09/17 02:40:06;;;;;;;0.10;0.10;;;10.30;99.90;;;;;;4991931;28;20676;-75
2022/09/17 02:42:43;;;;;;;0.10;0.10;;;10.30;99.90;;;;;;4981411;28;20234;-76
2022/09/17 02:45:20;;;;;;;0.10;0.10;;;10.30;99.90;;;;;;4990062;28;20220;-76
2022/09/17 02:48:19;;;;;;;0.00;0.00;;;10.20;99.90;;;;;;4982692;28;20544;-75
2022/09/17 02:51:11;;;;;;;0.10;0.10;;;10.20;99.90;;;;;;4985653;28;20204;-75
2022/09/17 02:53:47;;;;;;;0.10;0.10;;;10.20;99.90;;;;;;4975269;28;20225;-74
2022/09/17 02:56:25;;;;;;;0.10;0.10;;;10.20;99.90;;;;;;4982083;28;20210;-75
2022/09/17 02:58:59;;;;;;;0.10;0.10;;;10.20;99.90;;;;;;4993510;28;20663;-75
2022/09/17 03:01:33;;;;;;;0.10;0.10;;;10.10;99.90;;;;;;4991816;28;20212;-75
2022/09/17 03:04:05;;;;;;;0.10;0.10;;;10.10;99.90;;;;;;4993174;28;20643;-75
2022/09/17 03:06:33;;;;;;;0.00;0.00;;;10.10;99.90;;;;;;4996894;28;20239;-76
2022/09/17 03:09:01;;;;;;;0.00;0.00;;;10.10;99.90;;;;;;4976726;28;20699;-76
2022/09/17 03:11:29;;;;;;;0.10;0.10;;;10.00;99.90;;;;;;4995747;28;20200;-78
2022/09/17 03:13:57;;;;;;;0.10;0.10;;;10.10;99.90;;;;;;5012784;28;20266;-78
2022/09/17 03:16:25;;;;;;;0.10;0.10;;;10.00;99.90;;;;;;4983996;28;20207;-77
2022/09/17 03:18:53;;;;;;;0.00;0.00;;;10.10;99.90;;;;;;4991565;28;20235;-76
2022/09/17 03:21:22;;;;;;;0.10;0.10;;;10.10;99.90;;;;;;4992675;28;20216;-75
2022/09/17 03:23:50;;;;;;;0.10;0.10;;;10.00;99.90;;;;;;4992803;28;20698;-76
2022/09/17 03:26:18;;;;;;;0.10;0.10;;;10.10;99.90;;;;;;4993024;28;20209;-75
2022/09/17 03:28:46;;;;;;;0.10;0.10;;;10.10;99.90;;;;;;4991989;28;20231;-76
2022/09/17 03:31:13;;;;;;;0.10;0.10;;;10.00;99.90;;;;;;4992401;28;20201;-76
2022/09/17 03:33:41;;;;;;;0.10;0.10;;;10.00;99.90;;;;;;4990809;28;20232;-76
2022/09/17 03:36:09;;;;;;;0.10;0.10;;;10.00;99.90;;;;;;4992463;28;20196;-76
2022/09/17 03:38:38;;;;;;;0.10;0.10;;;9.90;99.90;;;;;;4992427;28;20249;-76
2022/09/17 03:41:07;;;;;;;0.10;0.10;;;9.90;99.90;;;;;;4973331;28;20739;-76
2022/09/17 03:43:35;;;;;;;0.10;0.10;;;9.90;99.90;;;;;;4973361;28;20217;-77
2022/09/17 03:46:03;;;;;;;0.10;0.10;;;9.90;99.90;;;;;;4973187;28;20201;-76
2022/09/17 03:48:34;;;;;;;0.10;0.10;;;9.80;99.90;;;;;;4975595;28;20231;-77
2022/09/17 03:51:01;;;;;;;0.10;0.10;;;9.80;99.90;;;;;;4985000;28;20612;-77
2022/09/17 03:53:29;;;;;;;0.05;0.05;;;9.80;99.90;;;;;;4991808;28;20224;-76
2022/09/17 03:56:00;;;;;;;0.10;0.10;;;9.80;99.90;;;;;;4990963;28;20212;-76
2022/09/17 03:58:28;;;;;;;0.10;0.10;;;9.80;99.90;;;;;;4979447;28;20266;-77
2022/09/17 04:00:56;;;;;;;0.10;0.10;;;9.70;99.90;;;;;;4992159;28;20196;-77
2022/09/17 04:03:25;;;;;;;0.10;0.10;;;9.70;99.90;;;;;;4993281;28;20217;-77
2022/09/17 04:05:52;;;;;;;0.08;0.08;;;9.70;99.90;;;;;;4996941;28;20196;-76
2022/09/17 04:08:21;;;;;;;0.10;0.10;;;9.70;99.90;;;;;;5004449;28;20243;-77
2022/09/17 04:10:49;;;;;;;0.10;0.10;;;9.70;99.90;;;;;;4980090;28;20264;-77
2022/09/17 04:13:18;;;;;;;0.10;0.10;;;9.70;99.90;;;;;;4989999;28;20224;-77
2022/09/17 04:15:47;;;;;;;0.10;0.10;;;9.60;99.90;;;;;;4992247;28;20243;-76
2022/09/17 04:18:15;;;;;;;0.10;0.10;;;9.70;99.90;;;;;;4987757;28;20204;-77
2022/09/17 04:20:43;;;;;;;0.10;0.10;;;9.70;99.90;;;;;;4990507;28;20239;-77
2022/09/17 04:23:12;;;;;;;0.10;0.10;;;9.70;99.90;;;;;;4978482;28;20244;-77
2022/09/17 04:25:40;;;;;;;0.10;0.10;;;9.60;99.90;;;;;;4987118;28;20307;-77
2022/09/17 04:28:08;;;;;;;0.10;0.10;;;9.60;99.90;;;;;;4991876;28;20594;-77
2022/09/17 04:30:37;;;;;;;0.10;0.10;;;9.60;99.90;;;;;;4991750;28;20201;-78
2022/09/17 04:33:05;;;;;;;0.10;0.10;;;9.70;99.90;;;;;;4983585;28;20590;-78
2022/09/17 04:35:33;;;;;;;0.00;0.00;;;9.60;99.90;;;;;;4991786;28;20196;-77
2022/09/17 04:38:01;;;;;;;0.10;0.10;;;9.70;99.90;;;;;;4991758;28;20247;-77
2022/09/17 04:40:29;;;;;;;0.10;0.10;;;9.70;99.90;;;;;;4972096;28;20757;-77
2022/09/17 04:43:01;;;;;;;0.05;0.05;;;9.70;99.90;;;;;;4981301;28;20227;-76
2022/09/17 04:45:32;;;;;;;0.03;0.03;;;9.60;99.90;;;;;;4992093;28;20946;-76
2022/09/17 04:48:02;;;;;;;0.00;0.00;;;9.70;99.90;;;;;;4985401;28;20765;-76
2022/09/17 04:50:31;;;;;;;0.10;0.10;;;9.60;99.90;;;;;;4983763;28;20253;-77
2022/09/17 04:52:58;;;;;;;0.10;0.10;;;9.60;99.90;;;;;;4981501;28;20232;-77
2022/09/17 04:55:26;;;;;;;0.10;0.10;;;9.60;99.90;;;;;;4990324;28;20589;-77
2022/09/17 04:57:54;;;;;;;0.10;0.10;;;9.50;99.90;;;;;;4987998;28;20197;-77
2022/09/17 05:00:23;;;;;;;0.10;0.10;;;9.60;99.90;;;;;;4988018;28;20208;-76
2022/09/17 05:02:54;;;;;;;0.00;0.00;;;9.70;99.90;;;;;;4979177;28;20236;-76
2022/09/17 05:05:24;;;;;;;0.05;0.05;;;9.60;99.90;;;;;;4978370;28;20205;-75
2022/09/17 05:07:52;;;;;;;0.00;0.00;;;9.60;99.90;;;;;;4986922;28;20220;-76
2022/09/17 05:10:21;;;;;;;0.08;0.08;;;9.60;99.90;;;;;;4994996;28;20211;-76
2022/09/17 05:12:50;;;;;;;0.10;0.10;;;9.60;99.90;;;;;;4994945;28;20243;-77
2022/09/17 05:15:18;;;;;;;0.00;0.00;;;9.60;99.90;;;;;;4993257;28;20619;-77
2022/09/17 05:17:46;;;;;;;0.10;0.10;;;9.60;99.90;;;;;;4994509;28;20193;-78
2022/09/17 05:20:16;;;;;;;0.10;0.10;;;9.50;99.90;;;;;;4992349;28;20220;-76
2022/09/17 05:22:47;;;;;;;0.10;0.10;;;9.50;99.90;;;;;;4987033;28;20244;-77
2022/09/17 05:25:16;;;;;;;0.00;0.00;;;9.40;99.90;;;;;;4981093;28;20644;-76
2022/09/17 05:27:44;;;;;;;0.10;0.10;;;9.40;99.90;;;;;;4975274;28;20291;-77
2022/09/17 05:30:13;;;;;;;0.00;0.00;;;9.40;99.90;;;;;;4995329;28;20204;-77
2022/09/17 05:32:40;;;;;;;0.00;0.00;;;9.50;99.90;;;;;;4994934;28;20270;-77
2022/09/17 05:35:09;;;;;;;0.00;0.00;;;9.40;99.90;;;;;;4993536;28;20683;-77
2022/09/17 05:37:37;;;;;;;0.10;0.10;;;9.50;99.90;;;;;;4994810;28;20448;-77
2022/09/17 05:40:09;;;;;;;0.10;0.10;;;9.50;99.90;;;;;;4987153;28;20538;-77
2022/09/17 05:42:37;;;;;;;0.00;0.00;;;9.50;99.90;;;;;;4994409;28;20703;-77
2022/09/17 05:45:06;;;;;;;0.00;0.00;;;9.50;99.90;;;;;;4994106;28;20236;-77
2022/09/17 05:47:35;;;;;;;0.00;0.00;;;9.50;99.90;;;;;;4974738;28;20216;-77
2022/09/17 05:50:03;;;;;;;0.10;0.10;;;9.50;99.90;;;;;;4980619;28;20208;-77
2022/09/17 05:52:31;;;;;;;0.00;0.00;;;9.50;99.90;;;;;;4994534;28;20267;-77
2022/09/17 05:54:59;;;;;;;0.10;0.10;;;9.50;99.90;;;;;;4990677;28;20200;-76
2022/09/17 05:57:30;;;;;;;0.10;0.10;;;9.60;99.90;;;;;;4977580;28;20201;-79
2022/09/17 05:59:58;;;;;;;0.00;0.00;;;9.70;99.90;;;;;;4996667;28;20208;-78
2022/09/17 06:02:25;;;;;;;0.10;0.10;;;9.60;99.90;;;;;;4990886;28;20450;-77
2022/09/17 06:04:54;;;;;;;0.10;0.10;;;9.60;99.90;;;;;;4993756;28;20192;-76
2022/09/17 06:07:21;;;;;;;0.00;0.00;;;9.70;99.90;;;;;;4982839;28;20208;-77
2022/09/17 06:09:49;;;;;;;0.10;0.10;;;9.70;99.90;;;;;;4987053;28;20262;-77
2022/09/17 06:12:17;;;;;;;0.00;0.00;;;9.70;99.90;;;;;;4979679;28;20545;-76
2022/09/17 06:14:46;;;;;;;0.10;0.10;;;9.70;99.90;;;;;;4975498;28;20248;-78
2022/09/17 06:17:14;;;;;;;0.10;0.10;;;9.70;99.90;;;;;;4973669;28;20221;-73
2022/09/17 06:19:48;;;;;;;0.10;0.10;;;9.70;99.90;;;;;;4983004;28;20273;-74
2022/09/17 06:22:18;;;;;;;0.10;0.10;;;9.70;99.90;;;;;;4974283;28;20695;-77
2022/09/17 06:24:46;;;;;;;0.10;0.10;;;9.80;99.90;;;;;;4974981;28;20248;-75
2022/09/17 06:27:14;;;;;;;0.00;0.00;;;9.80;99.90;;;;;;4989890;28;20223;-73
2022/09/17 06:29:42;;;;;;;0.05;0.05;;;9.80;99.90;;;;;;4984153;28;20596;-74
2022/09/17 06:32:14;;;;;;;0.10;0.10;;;9.90;99.90;;;;;;4997785;28;20211;-75
2022/09/17 06:34:42;;;;;;;0.10;0.10;;;9.90;99.90;;;;;;4993246;28;20216;-74
2022/09/17 06:37:10;;;;;;;0.10;0.10;;;10.00;99.90;;;;;;4994356;28;20255;-73
2022/09/17 06:39:38;;;;;;;0.10;0.10;;;10.10;99.90;;;;;;4988680;28;20208;-71
2022/09/17 06:42:07;;;;;;;0.10;0.10;;;10.10;99.90;;;;;;4993887;28;20203;-71
2022/09/17 06:44:34;;;;;;;0.10;0.10;;;10.20;99.90;;;;;;5009717;28;20582;-72
2022/09/17 06:47:02;;;;;;;0.10;0.10;;;10.20;99.90;;;;;;4986878;28;20196;-74
2022/09/17 06:49:31;;;;;;;0.10;0.10;;;10.30;99.90;;;;;;4985844;28;20610;-74
2022/09/17 06:51:59;;;;;;;0.10;0.10;;;10.30;99.90;;;;;;4980903;28;20255;-74
2022/09/17 06:54:27;;;;;;;0.10;0.10;;;10.30;99.90;;;;;;4991397;28;20220;-74
2022/09/17 06:56:54;;;;;;;0.10;0.10;;;10.40;99.90;;;;;;4981520;28;20602;-74
2022/09/17 06:59:23;;;;;;;0.10;0.10;;;10.40;99.90;;;;;;4989473;28;20725;-77
2022/09/17 07:01:51;;;;;;;0.10;0.10;;;10.50;99.90;;;;;;4991976;28;20205;-75
2022/09/17 07:04:18;;;;;;;0.10;0.10;;;10.50;99.90;;;;;;4980513;28;20216;-75
2022/09/17 07:06:48;;;;;;;0.10;0.10;;;10.60;99.90;;;;;;4984330;28;20221;-74
2022/09/17 07:09:15;;;;;;;0.10;0.10;;;10.50;99.90;;;;;;4982306;28;20215;-75
2022/09/17 07:11:44;;;;;;;0.10;0.10;;;10.50;99.90;;;;;;4985085;28;20535;-75
2022/09/17 07:14:12;;;;;;;0.10;0.10;;;10.50;99.90;;;;;;4978996;28;20635;-78
2022/09/17 07:16:40;;;;;;;0.10;0.10;;;10.60;99.90;;;;;;4992974;28;20670;-76
2022/09/17 07:19:08;;;;;;;0.10;0.10;;;10.60;99.90;;;;;;4995392;28;20196;-75
2022/09/17 07:21:37;;;;;;;0.10;0.10;;;10.60;99.90;;;;;;4996452;28;20200;-75
2022/09/17 07:24:07;;;;;;;0.10;0.10;;;10.70;99.90;;;;;;4992935;28;20232;-76
2022/09/17 07:26:35;;;;;;;0.10;0.10;;;10.60;99.90;;;;;;4996351;28;20223;-78
2022/09/17 07:29:02;;;;;;;0.10;0.10;;;10.70;99.90;;;;;;5011795;28;20224;-76
2022/09/17 07:31:32;;;;;;;0.10;0.10;;;10.70;99.90;;;;;;5013331;28;20671;-78
2022/09/17 07:34:00;;;;;;;0.00;0.00;;;10.70;99.90;;;;;;5001505;28;20224;-77
2022/09/17 07:36:28;;;;;;;0.00;0.00;;;10.70;99.90;;;;;;5015650;28;20262;-76
2022/09/17 07:38:56;;;;;;;0.10;0.10;;;10.80;99.90;;;;;;4996143;28;20602;-76
2022/09/17 07:41:25;;;;;;;0.10;0.10;;;10.80;99.90;;;;;;4985484;28;20213;-76
2022/09/17 07:43:54;;;;;;;0.00;0.00;;;10.80;99.90;;;;;;5007092;28;20232;-76
2022/09/17 07:46:22;;;;;;;0.00;0.00;;;10.80;99.90;;;;;;4992227;28;20227;-76
2022/09/17 07:48:50;;;;;;;0.08;0.08;;;11.00;99.90;;;;;;4991386;28;20224;-76
2022/09/17 07:51:20;;;;;;;0.10;0.10;;;11.00;99.90;;;;;;4992362;28;20200;-76
2022/09/17 07:53:51;;;;;;;0.05;0.05;;;10.90;99.90;;;;;;4992271;28;20263;-76
2022/09/17 07:56:19;;;;;;;0.10;0.10;;;11.00;99.90;;;;;;4992594;28;20537;-76
2022/09/17 07:58:48;;;;;;;0.00;0.00;;;11.10;99.90;;;;;;4991333;28;20193;-76
2022/09/17 08:01:17;;;;;;;0.10;0.10;;;11.00;99.90;;;;;;4992344;28;20231;-76
2022/09/17 08:03:49;;;;;;;0.10;0.10;;;11.00;99.90;;;;;;4991966;28;20226;-75
2022/09/17 08:06:19;;;;;;;0.10;0.10;;;11.00;99.90;;;;;;4991819;28;20235;-76
2022/09/17 08:08:47;;;;;;;0.10;0.10;;;11.10;99.90;;;;;;4989453;28;20245;-76
2022/09/17 08:11:18;;;;;;;0.03;0.03;;;11.20;99.90;;;;;;4984111;28;20208;-76
2022/09/17 08:14:06;;;;;;;0.10;0.10;;;11.10;99.90;;;;;;4975483;28;20294;-75
2022/09/17 08:16:34;;;;;;;0.10;0.10;;;11.20;99.90;;;;;;4981207;28;20216;-76
2022/09/17 08:19:02;;;;;;;0.10;0.10;;;11.30;99.90;;;;;;4989751;28;20239;-76
2022/09/17 08:21:30;;;;;;;0.10;0.10;;;11.30;99.90;;;;;;4991638;28;20295;-75
2022/09/17 08:23:58;;;;;;;0.10;0.10;;;11.40;99.90;;;;;;4989728;28;20263;-75
2022/09/17 08:26:26;;;;;;;0.10;0.10;;;11.50;99.90;;;;;;4981504;28;20204;-76
2022/09/17 08:28:55;;;;;;;0.10;0.10;;;11.50;99.90;;;;;;4987740;28;20228;-75
2022/09/17 08:31:27;;;;;;;0.10;0.10;;;11.50;99.90;;;;;;4974122;28;20203;-75
2022/09/17 08:33:54;;;;;;;0.10;0.10;;;11.60;99.90;;;;;;4984122;28;20570;-75
2022/09/17 08:36:24;;;;;;;0.10;0.10;;;11.60;99.90;;;;;;4990428;28;20227;-75
2022/09/17 08:38:53;;;;;;;0.03;0.03;;;11.50;99.90;;;;;;4995265;28;20227;-75
2022/09/17 08:41:28;;;;;;;0.08;0.08;;;11.60;99.90;;;;;;4990957;28;20266;-76
2022/09/17 08:44:14;;;;;;;0.10;0.10;;;11.50;99.90;;;;;;4987417;28;20258;-75
2022/09/17 08:46:49;;;;;;;0.10;0.10;;;11.60;99.90;;;;;;4976715;28;20684;-75
2022/09/17 08:49:28;;;;;;;0.03;0.03;;;11.60;99.90;;;;;;4995322;28;20640;-75
2022/09/17 08:52:16;;;;;;;0.10;0.10;;;11.60;99.90;;;;;;5001227;28;20203;-75
2022/09/17 08:54:50;;;;;;;0.00;0.00;;;11.70;99.90;;;;;;4997702;28;20235;-76
2022/09/17 08:57:24;;;;;;;0.00;0.00;;;11.80;99.90;;;;;;4999423;28;20196;-75
2022/09/17 09:00:00;;;;;;;0.10;0.10;;;11.80;99.90;;;;;;4989107;28;20212;-76
2022/09/17 09:02:45;;;;;;;0.10;0.10;;;11.80;99.90;;;;;;4984032;28;20298;-76
2022/09/17 09:05:16;;;;;;;0.00;0.00;;;11.90;99.90;;;;;;4989330;28;20283;-75
2022/09/17 09:07:50;;;;;;;0.10;0.10;;;12.00;99.90;;;;;;4985125;28;20235;-76
2022/09/17 09:10:22;;;;;;;0.10;0.10;;;11.90;99.90;;;;;;4998785;28;20223;-75
2022/09/17 09:12:51;;;;;;;0.10;0.10;;;12.00;99.90;;;;;;4992096;28;21018;-76
2022/09/17 09:15:33;;;;;;;0.10;0.10;;;12.00;99.90;;;;;;4989615;28;20200;-76
2022/09/17 09:18:12;;;;;;;0.10;0.10;;;12.20;99.90;;;;;;4984152;28;20227;-76
2022/09/17 09:20:48;;;;;;;0.10;0.10;;;12.20;99.90;;;;;;4975791;28;20224;-76
2022/09/17 09:23:20;;;;;;;0.10;0.10;;;12.30;99.90;;;;;;4988342;28;20615;-76
2022/09/17 09:25:55;;;;;;;0.10;0.10;;;12.30;99.90;;;;;;4993463;28;20204;-76
2022/09/17 09:28:35;;;;;;;0.10;0.10;;;12.40;99.90;;;;;;4984636;28;20258;-76
2022/09/17 09:31:23;;;;;;;0.00;0.00;;;12.50;99.90;;;;;;4992209;28;20228;-76
2022/09/17 09:33:52;;;;;;;0.00;0.00;;;12.50;99.90;;;;;;4983228;28;20243;-76
2022/09/17 09:36:21;;;;;;;0.00;0.00;;;12.50;99.90;;;;;;5007431;28;20207;-76
2022/09/17 09:38:55;;;;;;;0.10;0.10;;;12.50;99.90;;;;;;5014286;28;20790;-75
2022/09/17 09:41:30;;;;;;;0.00;0.00;;;12.50;99.90;;;;;;4991356;28;20680;-76
2022/09/17 09:44:02;;;;;;;0.00;0.00;;;12.40;99.90;;;;;;4993084;28;20219;-76
2022/09/17 09:46:59;;;;;;;0.10;0.10;;;12.30;99.90;;;;;;4993179;28;20223;-76
2022/09/17 09:49:49;;;;;;;0.10;0.10;;;12.30;99.90;;;;;;4992294;28;20236;-76
2022/09/17 09:52:28;;;;;;;0.10;0.10;;;12.30;99.90;;;;;;4983320;28;20205;-76
2022/09/17 09:55:14;;;;;;;0.10;0.10;;;12.40;99.90;;;;;;4991416;28;20232;-76
2022/09/17 09:57:46;;;;;;;0.10;0.10;;;12.50;99.90;;;;;;4993882;28;20282;-76
2022/09/17 10:00:27;;;;;;;0.00;0.00;;;12.70;99.90;;;;;;4994933;28;20197;-76
2022/09/17 10:03:01;;;;;;;0.10;0.10;;;12.90;99.90;;;;;;4993973;28;20317;-76
2022/09/17 10:05:31;;;;;;;0.10;0.10;;;12.80;99.90;;;;;;4989402;28;20206;-76
2022/09/17 10:07:59;;;;;;;0.10;0.10;;;12.80;99.90;;;;;;4992119;28;20298;-76
2022/09/17 10:10:26;;;;;;;0.08;0.08;;;12.90;99.90;;;;;;4981353;28;20781;-75
2022/09/17 10:13:10;;;;;;;0.00;0.00;;;12.90;99.90;;;;;;4979051;28;20714;-76
2022/09/17 10:15:38;;;;;;;0.10;0.10;;;13.00;99.90;;;;;;4981989;28;20229;-75
2022/09/17 10:18:16;;;;;;;0.10;0.10;;;12.90;99.90;;;;;;4983030;28;20196;-75
2022/09/17 10:20:54;;;;;;;0.10;0.10;;;13.00;99.90;;;;;;4994028;28;20196;-75
2022/09/17 10:23:24;;;;;;;0.10;0.10;;;12.90;99.90;;;;;;4993807;28;20789;-75
2022/09/17 10:25:54;;;;;;;0.10;0.10;;;12.90;99.90;;;;;;4989426;28;20243;-75
2022/09/17 10:28:32;;;;;;;0.10;0.10;;;12.80;99.90;;;;;;4993593;28;20220;-75
2022/09/17 10:31:03;;;;;;;0.00;0.00;;;12.90;99.90;;;;;;4992729;28;20290;-75
2022/09/17 10:33:37;;;;;;;0.00;0.00;;;13.00;99.90;;;;;;4994703;28;20575;-75
2022/09/17 10:36:09;;;;;;;0.10;0.10;;;13.00;99.90;;;;;;4994119;28;20200;-74
2022/09/17 10:38:38;;;;;;;0.00;0.00;;;12.80;99.90;;;;;;4993655;28;20209;-75
2022/09/17 10:41:13;;;;;;;0.00;0.00;;;12.80;99.90;;;;;;4993576;28;20239;-75
2022/09/17 10:43:41;;;;;;;0.10;0.10;;;12.80;99.90;;;;;;4993461;28;20247;-75
2022/09/17 10:46:13;;;;;;;0.00;0.00;;;12.80;99.90;;;;;;4993048;28;20197;-75
2022/09/17 10:48:45;;;;;;;0.00;0.00;;;12.80;99.90;;;;;;4992261;28;20263;-75
2022/09/17 10:51:23;;;;;;;0.00;0.00;;;13.10;99.90;;;;;;4985653;28;20596;-75
2022/09/17 10:54:40;;;;;;;0.10;0.10;;;13.20;99.90;;;;;;4993519;28;20224;-75
2022/09/17 10:57:17;;;;;;;0.10;0.10;;;13.50;99.90;;;;;;4993534;28;20671;-75
2022/09/17 11:00:05;;;;;;;0.10;0.10;;;13.70;99.90;;;;;;5010576;28;20207;-75
2022/09/17 11:03:01;;;;;;;0.10;0.10;;;13.70;99.90;;;;;;4992601;28;20220;-75
2022/09/17 11:05:53;;;;;;;0.10;0.10;;;13.90;99.90;;;;;;4995089;28;20296;-76
2022/09/17 11:08:29;;;;;;;0.00;0.00;;;13.90;99.90;;;;;;4975506;28;20205;-76
2022/09/17 11:11:06;;;;;;;0.00;0.00;;;14.00;99.90;;;;;;4975739;28;20213;-76
2022/09/17 11:13:40;;;;;;;0.00;0.00;;;14.30;99.90;;;;;;4992564;28;20624;-76
2022/09/17 11:16:18;;;;;;;0.10;0.10;;;14.50;99.90;;;;;;4993181;28;20687;-76
2022/09/17 11:18:53;;;;;;;0.10;0.10;;;14.70;99.90;;;;;;4992691;28;20246;-76
2022/09/17 11:21:40;;;;;;;0.00;0.00;;;14.80;99.90;;;;;;4993072;28;20193;-76
2022/09/17 11:24:45;;;;;;;0.10;0.10;;;14.90;99.90;;;;;;4995557;28;20274;-76
2022/09/17 11:27:27;;;;;;;0.10;0.10;;;14.90;99.90;;;;;;4997697;28;20211;-76
2022/09/17 11:30:04;;;;;;;0.00;0.00;;;14.50;99.90;;;;;;4993910;28;20762;-77
2022/09/17 11:32:41;;;;;;;0.05;0.05;;;14.30;99.90;;;;;;4973808;28;20213;-76
2022/09/17 11:35:12;;;;;;;0.10;0.10;;;14.10;99.90;;;;;;4984799;28;20602;-76
2022/09/17 11:37:47;;;;;;;0.00;0.00;;;13.70;99.90;;;;;;4991883;28;20196;-76
2022/09/17 11:40:22;;;;;;;0.00;0.00;;;13.60;99.90;;;;;;4991862;28;20196;-76
2022/09/17 11:42:55;;;;;;;0.10;0.10;;;13.50;99.90;;;;;;4992857;28;20226;-76
2022/09/17 11:45:27;;;;;;;0.10;0.10;;;13.50;99.90;;;;;;4992378;28;20745;-76
2022/09/17 11:48:01;;;;;;;0.00;0.00;;;13.60;99.90;;;;;;4992418;28;20197;-76
2022/09/17 11:50:34;;;;;;;0.00;0.00;;;13.90;99.90;;;;;;4991820;28;20730;-77
2022/09/17 11:53:11;;;;;;;0.00;0.00;;;14.30;99.90;;;;;;4983916;28;20232;-76
2022/09/17 11:55:47;;;;;;;0.00;0.00;;;14.30;99.90;;;;;;4972735;28;20217;-76
2022/09/17 11:58:21;;;;;;;0.00;0.00;;;14.40;99.90;;;;;;4972959;28;20205;-77
2022/09/17 12:00:54;;;;;;;0.00;0.00;;;14.80;99.90;;;;;;4972774;28;20205;-76
2022/09/17 12:03:28;;;;;;;0.00;0.00;;;14.90;99.90;;;;;;4983260;28;20239;-77
2022/09/17 12:05:59;;;;;;;0.00;0.00;;;14.90;99.90;;;;;;4986440;28;20208;-77
2022/09/17 12:08:34;;;;;;;0.00;0.00;;;15.30;99.90;;;;;;4973014;28;20193;-77
2022/09/17 12:11:11;;;;;;;0.00;0.00;;;15.70;99.90;;;;;;4991951;28;20220;-77
2022/09/17 12:13:43;;;;;;;0.00;0.00;;;15.70;99.90;;;;;;4991491;28;20211;-77
2022/09/17 12:16:17;;;;;;;0.00;0.00;;;16.10;99.90;;;;;;4992459;28;20663;-77
2022/09/17 12:18:53;;;;;;;0.00;0.00;;;16.40;99.90;;;;;;4991952;28;20196;-77
2022/09/17 12:21:26;;;;;;;0.00;0.00;;;16.80;99.90;;;;;;4992367;28;20600;-77
2022/09/17 12:23:59;;;;;;;0.00;0.00;;;17.10;99.90;;;;;;4991957;28;20287;-77
2022/09/17 12:26:40;;;;;;;0.00;0.00;;;17.10;99.90;;;;;;4992432;28;20192;-77
2022/09/17 12:29:20;;;;;;;0.00;0.00;;;17.30;99.90;;;;;;4992130;28;20668;-77
2022/09/17 12:31:56;;;;;;;0.00;0.00;;;17.00;99.90;;;;;;4992588;28;20639;-77
2022/09/17 12:34:33;;;;;;;0.00;0.00;;;16.60;99.90;;;;;;4992657;28;20219;-77
2022/09/17 12:37:08;;;;;;;0.00;0.00;;;16.70;99.90;;;;;;4991827;28;20192;-78
2022/09/17 12:40:01;;;;;;;0.00;0.00;;;16.40;99.90;;;;;;4989001;28;20231;-76
2022/09/17 12:42:46;;;;;;;0.00;0.00;;;16.00;99.90;;;;;;4970596;28;20224;-77
2022/09/17 12:45:44;;;;;;;0.00;0.00;;;15.80;99.90;;;;;;4967277;28;20205;-76
2022/09/17 12:48:29;;;;;;;0.00;0.00;;;15.90;99.90;;;;;;4962014;28;20680;-77
2022/09/17 12:51:11;;;;;;;0.00;0.00;;;15.60;99.90;;;;;;4991312;28;20196;-76
2022/09/17 12:53:44;;;;;;;0.00;0.00;;;15.10;99.90;;;;;;4991531;28;20552;-77
2022/09/17 12:56:24;;;;;;;0.00;0.00;;;15.20;99.90;;;;;;4991927;28;20266;-77
2022/09/17 12:59:07;;;;;;;0.00;0.00;;;15.40;99.90;;;;;;4990937;28;20203;-77
2022/09/17 13:01:40;;;;;;;0.00;0.00;;;15.70;99.90;;;;;;4991955;28;20282;-75
2022/09/17 13:04:20;;;;;;;0.00;0.00;;;15.90;99.90;;;;;;4991580;28;20220;-77
2022/09/17 13:07:47;;;;;;;0.00;0.00;;;15.80;99.90;;;;;;4984186;28;20202;-78
2022/09/17 13:10:35;;;;;;;0.00;0.00;;;15.70;99.90;;;;;;4991955;28;20212;-77
2022/09/17 13:13:13;;;;;;;0.10;0.10;;;15.10;99.90;;;;;;4991021;28;20643;-75
2022/09/17 13:15:58;;;;;;;0.10;0.10;;;14.00;99.90;;;;;;4990072;28;20687;-75
2022/09/17 13:18:37;;;;;;;0.00;0.00;;;13.50;99.90;;;;;;4990997;28;20204;-75
2022/09/17 13:21:12;;;;;;;0.00;0.00;;;13.60;99.90;;;;;;4991803;28;20672;-75